Monday, December 17, 2018, 1:00 PM EST
Back to Local

KEEN, Keene, Dillant-hopkins Airport

Location: Keene, NH, United States Lat: 42.9
Local Time: 1:00 PM EST (18:00 GMT) Lon: -72.267
Time Zone: US/Eastern Elev: 488 ft

Show me the last for .
Show Coded

Time T Td Feel RH Dir Speed Gust Alt SLP Vis Weather Sky Remarks
2018-12-17 12:44 36 34 - 93 - Calm - 29.57 - 10 -RA FEW008 SCT022 OVC038 1-hr Precip Total: Trace
2018-12-17 12:23 36 34 33 93 300° 3 - 29.58 - 7 -RA FEW014 BKN025 OVC032 1-hr Precip Total: Trace
2018-12-17 12:04 36 34 - 93 - Calm - 29.59 - 10 FEW006 SCT010 OVC032 None
2018-12-17 11:56 35 34 32 95 270° 3 - 29.59 29.65 10 SCT006 BKN023 OVC030 None
2018-12-17 11:50 36 34 33 93 210° 3 - 29.59 - 10 BKN006 BKN015 OVC030 None
2018-12-17 11:41 36 34 32 93 190° 5 - 29.60 - 10 FEW006 SCT017 OVC030 None
2018-12-17 11:33 36 34 32 93 180° 5 - 29.59 - 10 FEW016 OVC030 None
2018-12-17 10:56 34 32 31 92 160° 3 - 29.62 29.67 10 SCT006 OVC020 None
2018-12-17 10:41 34 34 31 100 200° 3 - 29.63 - 10 SCT006 OVC022 None
2018-12-17 09:56 34 32 - 92 - Calm - 29.65 29.72 10 OVC026 6-hr Precip Total (10am): 0.00"
2018-12-17 08:56 33 32 - 95 - Calm - 29.68 29.74 10 OVC028 1-hr Precip Total: Trace
2018-12-17 08:11 34 32 - 93 - Calm - 29.69 - 6 UP BR FEW007 BKN034 OVC050 1-hr Precip Total: Trace
2018-12-17 07:56 32 31 - 95 - Calm - 29.69 29.76 2 -SN BR FEW007 BKN034 OVC041 Variable visibility
1-hr Precip Total: Trace
2018-12-17 07:54 32 30 - 92 - Calm - 29.69 - 2 -SN BR FEW007 BKN034 OVC041 Variable visibility
1-hr Precip Total: Trace
2018-12-17 07:46 32 - - 0 - Calm - 29.70 - 4 UP SCT027 OVC036 1-hr Precip Total: Trace
2018-12-17 06:56 32 31 - 95 - Calm - 29.71 29.77 10 OVC019 6-hr Precip Total (7am): 0.01"
24-hr Precip Total (7am): 0.18"
2018-12-17 06:35 32 30 - 92 - Calm - 29.71 - 10 OVC015 None
2018-12-17 05:56 32 31 29 95 360° 3 - 29.71 29.77 10 OVC013 1-hr Precip Total: Trace
2018-12-17 05:45 32 30 29 92 10° 3 - 29.71 - 10 SCT005 OVC013 1-hr Precip Total: Trace
2018-12-17 04:56 32 31 27 95 350° 5 - 29.73 29.79 4 UP BR OVC005 1-hr Precip Total: Trace
2018-12-17 04:24 32 30 26 92 360° 6 - 29.73 - 6 UP BR BKN005 BKN012 OVC016 1-hr Precip Total: Trace
2018-12-17 04:15 32 30 26 92 20° 6 - 29.73 - 5 UP BR FEW005 OVC016 1-hr Precip Total: Trace
2018-12-17 04:07 32 30 27 92 360° 5 - 29.74 - 6 UP BR OVC014 1-hr Precip Total: Trace
2018-12-17 03:56 32 31 26 95 340° 7 - 29.74 29.80 8 UP FEW005 OVC016 1-hr Precip Total: 0.01"
6-hr Precip Total (4am): 0.01"
2018-12-17 03:21 32 30 27 92 10° 5 - 29.74 - 3 UP BR FEW005 BKN014 OVC048 1-hr Precip Total: Trace
2018-12-17 03:09 32 30 27 92 10° 5 - 29.75 - 2 -SN BR BKN014 OVC046 1-hr Precip Total: Trace
2018-12-17 02:56 32 31 26 95 360° 7 - 29.75 29.81 5 -SN BR FEW018 OVC046 1-hr Precip Total: Trace
2018-12-17 02:45 34 32 30 93 20° 5 - 29.75 - 9 -SN FEW016 OVC046 1-hr Precip Total: Trace
2018-12-17 02:12 32 30 26 92 360° 7 - 29.76 - 6 -SN BR FEW007 SCT011 OVC016 1-hr Precip Total: Trace
2018-12-17 01:56 32 31 26 95 350° 7 - 29.77 29.83 4 -SN BR BKN009 OVC017 1-hr Precip Total: Trace
2018-12-17 01:37 34 30 27 86 360° 8 - 29.77 - 7 -RA BKN011 OVC017 1-hr Precip Total: Trace
2018-12-17 01:30 34 30 26 86 350° 9 - 29.77 - 6 UP BR SCT009 OVC016 1-hr Precip Total: Trace
2018-12-17 00:56 33 31 26 91 360° 8 - 29.78 29.84 9 OVC014 1-hr Precip Total: Trace
6-hr Precip Total (1am): 0.17"
6-hr Min Temp (1am): 33.1°F
6-hr Max Temp (1am): 35.1°F
2018-12-16 23:56 33 32 25 95 360° 10 - 29.81 29.87 10 -RA OVC014 1-hr Precip Total: 0.04"
24-hr Min Temp (12am): 21.9°F
24-hr Max Temp (12am): 37.0°F
2018-12-16 23:22 34 30 27 86 360° 8 - 29.82 - 7 -SN OVC014 1-hr Precip Total: 0.03"
2018-12-16 22:56 33 31 27 91 360° 7 - 29.84 29.90 7 -SN OVC016 1-hr Precip Total: 0.05"
2018-12-16 21:56 34 31 29 88 20° 6 - 29.86 29.93 9 -RA OVC018 1-hr Precip Total: 0.02"
6-hr Precip Total (10pm): 0.08"
2018-12-16 20:56 34 31 27 88 360° 9 - 29.89 29.95 10 -RA OVC018 1-hr Precip Total: 0.04"
2018-12-16 19:56 34 31 29 88 Variable 6 - 29.91 29.98 8 UP OVC018 1-hr Precip Total: 0.02"
2018-12-16 18:56 35 31 28 84 350° 9 - 29.92 29.99 10 -RA OVC018 1-hr Precip Total: Trace
6-hr Precip Total (7pm): 0.00"
6-hr Min Temp (7pm): 35.1°F
6-hr Max Temp (7pm): 37.0°F
2018-12-16 17:56 36 31 30 81 Variable 7 - 29.95 30.01 10 OVC018 1-hr Precip Total: Trace
2018-12-16 16:56 37 31 30 78 10° 9 - 29.95 30.01 10 OVC016 1-hr Precip Total: Trace
2018-12-16 15:56 36 31 29 81 10° 9 - 29.96 30.02 10 OVC016 6-hr Precip Total (4pm): 0.00"
2018-12-16 14:56 36 31 32 81 330° 5 - 29.98 30.05 10 OVC016 1-hr Precip Total: Trace
2018-12-16 13:56 36 32 33 85 360° 3 - 30.00 30.06 10 -RA OVC016 1-hr Precip Total: Trace

Support USWX by starting your Amazon purchase here.